createdAt,value
2023-01-11T00:00:45.192Z,3.35
2023-01-11T00:04:34.355Z,3.33
2023-01-11T00:08:23.583Z,3.34
2023-01-11T00:12:15.483Z,3.38
2023-01-11T00:15:57.461Z,3.38
2023-01-11T00:19:46.712Z,3.39
2023-01-11T00:23:19.350Z,3.34
2023-01-11T00:26:59.009Z,3.38
2023-01-11T00:30:48.359Z,3.36
2023-01-11T00:34:37.681Z,3.35
2023-01-11T00:38:26.940Z,3.29
2023-01-11T00:42:08.074Z,3.25
2023-01-11T00:45:55.107Z,3.24
2023-01-11T00:49:44.411Z,3.27
2023-01-11T00:53:26.410Z,3.30
2023-01-11T00:57:15.587Z,3.35
2023-01-11T01:01:04.897Z,3.27
2023-01-11T01:04:46.481Z,3.22
2023-01-11T01:08:28.805Z,3.18
2023-01-11T01:12:10.846Z,3.14
2023-01-11T01:16:00.188Z,3.17
2023-01-11T01:19:42.008Z,3.21
2023-01-11T01:23:31.448Z,3.22
2023-01-11T01:27:05.825Z,3.21
2023-01-11T01:30:47.800Z,3.15
2023-01-11T01:34:37.060Z,3.17
2023-01-11T01:38:26.206Z,3.19
2023-01-11T01:42:13.866Z,3.24
2023-01-11T01:46:07.762Z,3.25
2023-01-11T01:49:55.366Z,3.24
2023-01-11T01:53:44.525Z,3.19
2023-01-11T01:57:33.688Z,3.22
2023-01-11T02:01:22.979Z,3.28
2023-01-11T02:05:11.980Z,3.34
2023-01-11T02:08:58.267Z,3.34
2023-01-11T02:12:47.468Z,3.32
2023-01-11T02:16:36.659Z,3.31
2023-01-11T02:20:31.649Z,3.25
2023-01-11T02:24:33.054Z,3.37
2023-01-11T02:28:19.019Z,3.44
2023-01-11T02:32:14.154Z,3.48
2023-01-11T02:36:24.534Z,3.46
2023-01-11T02:40:22.679Z,3.44
2023-01-11T02:44:07.431Z,3.38
2023-01-11T02:47:56.788Z,3.35
2023-01-11T02:51:54.968Z,3.37
2023-01-11T02:55:28.076Z,3.41
2023-01-11T02:59:09.052Z,3.45
2023-01-11T03:02:58.361Z,3.44
2023-01-11T03:06:52.034Z,3.43
2023-01-11T03:10:46.963Z,3.40
2023-01-11T03:14:41.995Z,3.38
2023-01-11T03:18:37.111Z,3.38
2023-01-11T03:22:20.403Z,3.39
2023-01-11T03:26:04.707Z,3.47
2023-01-11T03:29:56.972Z,3.48
2023-01-11T03:33:48.986Z,3.49
2023-01-11T03:37:46.783Z,3.48
2023-01-11T03:41:36.031Z,3.47
2023-01-11T03:45:19.465Z,3.54
2023-01-11T03:48:42.741Z,3.57
2023-01-11T03:52:31.893Z,3.59
2023-01-11T03:56:14.647Z,3.56
2023-01-11T04:00:03.846Z,3.53
2023-01-11T04:03:53.066Z,3.51
2023-01-11T04:07:35.033Z,3.55
2023-01-11T04:11:24.392Z,3.55
2023-01-11T04:15:07.279Z,3.50
2023-01-11T04:18:56.715Z,3.47
2023-01-11T04:22:45.983Z,3.42
2023-01-11T04:26:12.917Z,3.41
2023-01-11T04:30:00.980Z,3.36
2023-01-11T04:33:50.171Z,3.36
2023-01-11T04:37:33.288Z,3.40
2023-01-11T04:41:23.334Z,3.42
2023-01-11T04:45:06.120Z,3.38
2023-01-11T04:48:55.350Z,3.37
2023-01-11T04:52:44.644Z,3.29
2023-01-11T04:56:33.911Z,3.27
2023-01-11T05:00:11.829Z,3.27
2023-01-11T05:04:01.194Z,3.21
2023-01-11T05:07:43.436Z,3.11
2023-01-11T05:11:32.658Z,3.07
2023-01-11T05:15:21.605Z,3.11
2023-01-11T05:19:10.771Z,3.29
2023-01-11T05:22:52.731Z,3.45
2023-01-11T05:26:42.045Z,3.52
2023-01-11T05:30:31.288Z,3.65
2023-01-11T05:34:20.522Z,3.77
2023-01-11T05:38:09.634Z,3.64
2023-01-11T05:41:39.328Z,3.45
2023-01-11T05:45:26.567Z,3.36
2023-01-11T05:49:09.252Z,3.27
2023-01-11T05:52:58.440Z,3.21
2023-01-11T05:56:56.658Z,3.24
2023-01-11T06:00:39.796Z,3.21
2023-01-11T06:04:29.022Z,3.16
2023-01-11T06:08:18.180Z,3.08
2023-01-11T06:12:07.087Z,3.01
2023-01-11T06:15:56.246Z,2.96
2023-01-11T06:19:44.295Z,2.88
2023-01-11T06:23:33.490Z,2.91
2023-01-11T06:27:22.379Z,2.92
2023-01-11T06:31:11.877Z,2.87
2023-01-11T06:34:52.844Z,2.85
2023-01-11T06:38:14.695Z,2.79
2023-01-11T06:42:02.295Z,2.78
2023-01-11T06:45:44.178Z,2.82
2023-01-11T06:49:24.575Z,2.83
2023-01-11T06:52:57.237Z,2.83
2023-01-11T06:56:46.472Z,2.81
2023-01-11T07:00:34.663Z,2.79
2023-01-11T07:04:23.879Z,2.78
2023-01-11T07:08:11.789Z,2.74
2023-01-11T07:12:01.000Z,2.81
2023-01-11T07:15:39.797Z,2.93
2023-01-11T07:19:29.008Z,3.04
2023-01-11T07:23:01.009Z,3.09
2023-01-11T07:26:48.758Z,3.07
2023-01-11T07:30:30.860Z,3.06
2023-01-11T07:34:20.076Z,3.01
2023-01-11T07:38:09.177Z,3.02
2023-01-11T07:41:49.506Z,3.10
2023-01-11T07:45:45.745Z,3.19
2023-01-11T07:49:28.042Z,3.28
2023-01-11T07:53:09.216Z,3.38
2023-01-11T07:56:51.089Z,3.45
2023-01-11T08:00:39.953Z,3.46
2023-01-11T08:04:29.129Z,3.46
2023-01-11T08:08:17.216Z,3.52
2023-01-11T08:12:04.626Z,3.59
2023-01-11T08:15:53.830Z,3.64
2023-01-11T08:19:32.830Z,3.72
2023-01-11T08:23:20.301Z,3.81
2023-01-11T08:27:00.460Z,3.86
2023-01-11T08:30:58.547Z,3.89
2023-01-11T08:34:50.530Z,3.91
2023-01-11T08:38:38.217Z,4.04
2023-01-11T08:42:27.189Z,4.09
2023-01-11T08:46:16.109Z,4.15
2023-01-11T08:50:05.047Z,4.16
2023-01-11T08:53:54.426Z,4.16
2023-01-11T08:57:36.121Z,4.18
2023-01-11T09:01:25.077Z,4.21
2023-01-11T09:05:05.732Z,4.38
2023-01-11T09:08:57.942Z,4.52
2023-01-11T09:12:33.421Z,4.56
2023-01-11T09:16:15.134Z,4.58
2023-01-11T09:20:04.267Z,4.58
2023-01-11T09:23:45.729Z,4.52
2023-01-11T09:27:28.417Z,4.52
2023-01-11T09:31:17.767Z,4.45
2023-01-11T09:35:06.964Z,4.46
2023-01-11T09:38:56.095Z,4.37
2023-01-11T09:42:35.017Z,4.36
2023-01-11T09:46:15.692Z,4.34
2023-01-11T09:50:07.288Z,4.22
2023-01-11T09:53:50.430Z,4.16
2023-01-11T09:57:51.075Z,4.23
2023-01-11T10:02:04.184Z,4.29
2023-01-11T10:05:51.443Z,4.37
2023-01-11T10:18:35.337Z,4.50
2023-01-11T10:22:19.732Z,4.58
2023-01-11T10:26:16.066Z,4.66
2023-01-11T10:30:35.113Z,4.74
2023-01-11T10:34:20.904Z,4.80
2023-01-11T10:38:24.695Z,4.88
2023-01-11T10:42:12.363Z,4.91
2023-01-11T10:46:01.654Z,4.96
2023-01-11T10:49:41.801Z,4.89
2023-01-11T10:53:29.434Z,4.89
2023-01-11T10:57:17.306Z,4.92
2023-01-11T11:01:27.512Z,5.00
2023-01-11T11:05:34.258Z,5.00
2023-01-11T11:09:34.214Z,5.14
2023-01-11T11:13:23.364Z,5.22
2023-01-11T11:17:33.364Z,5.29
2023-01-11T11:21:05.121Z,5.29
2023-01-11T11:24:33.383Z,5.27
2023-01-11T11:27:37.476Z,5.30
2023-01-11T11:31:32.468Z,5.24
2023-01-11T11:35:14.239Z,5.25
2023-01-11T11:38:53.007Z,5.25
2023-01-11T11:42:50.590Z,5.12
2023-01-11T11:46:41.170Z,5.17
2023-01-11T11:50:44.781Z,5.07
2023-01-11T11:54:34.735Z,4.94
2023-01-11T11:58:13.269Z,4.71
2023-01-11T12:02:02.241Z,4.64
2023-01-11T12:05:51.665Z,4.51
2023-01-11T12:09:27.670Z,4.45
2023-01-11T12:13:16.882Z,4.48
2023-01-11T12:17:06.096Z,4.53
2023-01-11T12:21:04.056Z,4.61
2023-01-11T12:24:56.039Z,4.69
2023-01-11T12:29:06.095Z,4.73
2023-01-11T12:32:54.606Z,4.60
2023-01-11T12:36:46.538Z,4.61
2023-01-11T12:40:42.891Z,4.42
2023-01-11T12:44:43.882Z,4.42
2023-01-11T12:48:57.504Z,4.42
2023-01-11T12:53:04.916Z,4.32
2023-01-11T12:57:03.243Z,4.21
2023-01-11T13:01:01.357Z,4.14
2023-01-11T13:05:11.243Z,4.20
2023-01-11T13:09:01.814Z,4.27
2023-01-11T13:12:49.017Z,4.35
2023-01-11T13:16:38.920Z,4.31
2023-01-11T13:20:59.494Z,4.20
2023-01-11T13:24:55.902Z,4.02
2023-01-11T13:28:45.034Z,3.93
2023-01-11T13:32:37.172Z,3.82
2023-01-11T13:36:23.782Z,3.73
2023-01-11T13:40:13.286Z,3.75
2023-01-11T13:44:08.189Z,3.73
2023-01-11T13:47:57.448Z,3.73
2023-01-11T13:51:55.273Z,3.66
2023-01-11T13:55:53.682Z,3.62
2023-01-11T13:59:45.983Z,3.57
2023-01-11T14:03:35.294Z,3.54
2023-01-11T14:07:33.282Z,3.53
2023-01-11T14:11:25.576Z,3.46
2023-01-11T14:15:22.668Z,3.40
2023-01-11T14:19:17.938Z,3.41
2023-01-11T14:23:18.768Z,3.42
2023-01-11T14:27:15.409Z,3.42
2023-01-11T14:31:07.505Z,3.40
2023-01-11T14:34:53.531Z,3.30
2023-01-11T14:38:47.345Z,3.18
2023-01-11T14:42:37.002Z,3.03
2023-01-11T14:46:34.833Z,2.90
2023-01-11T14:50:25.403Z,2.71
2023-01-11T14:54:14.654Z,2.52
2023-01-11T14:58:18.853Z,2.38
2023-01-11T15:02:07.857Z,2.30
2023-01-11T15:06:11.874Z,2.28
2023-01-11T15:09:59.133Z,2.25
2023-01-11T15:13:48.249Z,2.21
2023-01-11T15:17:35.231Z,2.12
2023-01-11T15:21:36.194Z,2.04
2023-01-11T15:25:28.210Z,1.96
2023-01-11T15:29:18.665Z,1.83
2023-01-11T15:33:07.918Z,1.68
2023-01-11T15:36:57.224Z,1.56
2023-01-11T15:40:55.335Z,1.56
2023-01-11T15:45:02.696Z,1.61
2023-01-11T15:49:16.012Z,1.71
2023-01-11T15:53:18.488Z,1.72
2023-01-11T15:57:21.687Z,1.64
2023-01-11T16:01:23.131Z,1.54
2023-01-11T16:05:21.449Z,1.39
2023-01-11T16:09:09.370Z,1.25
2023-01-11T16:13:04.563Z,1.11
2023-01-11T16:17:11.880Z,1.01
2023-01-11T16:21:01.163Z,0.97
2023-01-11T16:24:50.392Z,0.95
2023-01-11T16:28:39.527Z,0.83
2023-01-11T16:32:37.739Z,0.72
2023-01-11T16:36:26.879Z,0.64
2023-01-11T16:40:16.101Z,0.53
2023-01-11T16:43:59.933Z,0.40
2023-01-11T16:47:47.241Z,0.29
2023-01-11T16:51:42.001Z,0.24
2023-01-11T16:55:31.157Z,0.23
2023-01-11T16:59:24.339Z,0.23
2023-01-11T17:03:01.507Z,0.26
2023-01-11T17:06:53.459Z,0.26
2023-01-11T17:10:33.739Z,0.21
2023-01-11T17:14:40.858Z,0.18
2023-01-11T17:18:30.129Z,0.08
2023-01-11T17:22:18.000Z,0.04
2023-01-11T17:26:14.435Z,0.08
2023-01-11T17:30:02.290Z,0.18
2023-01-11T17:33:57.419Z,0.27
2023-01-11T17:37:46.659Z,0.32
2023-01-11T17:41:34.298Z,0.38
2023-01-11T17:45:34.711Z,0.31
2023-01-11T17:49:33.496Z,0.17
2023-01-11T17:53:22.643Z,0.04
2023-01-11T17:57:14.495Z,0.00
2023-01-11T18:01:04.107Z,0.03
2023-01-11T18:04:58.994Z,0.09
2023-01-11T18:08:39.212Z,0.11
2023-01-11T18:12:40.679Z,0.18
2023-01-11T18:16:33.121Z,0.16
2023-01-11T18:20:21.228Z,0.08
2023-01-11T18:24:13.297Z,-0.02
2023-01-11T18:28:05.226Z,-0.15
2023-01-11T18:31:53.079Z,-0.24
2023-01-11T18:35:42.225Z,-0.27
2023-01-11T18:39:31.434Z,-0.19
2023-01-11T18:43:20.762Z,-0.12
2023-01-11T18:47:09.988Z,-0.06
2023-01-11T18:50:59.431Z,-0.01
2023-01-11T18:54:48.828Z,-0.07
2023-01-11T18:58:38.092Z,-0.17
2023-01-11T19:06:06.045Z,-0.40
2023-01-11T19:09:53.805Z,-0.48
2023-01-11T19:13:41.901Z,-0.52
2023-01-11T19:17:31.171Z,-0.53
2023-01-11T19:21:20.208Z,-0.54
2023-01-11T19:25:09.542Z,-0.57
2023-01-11T19:28:58.829Z,-0.60
2023-01-11T19:32:48.069Z,-0.62
2023-01-11T19:36:37.263Z,-0.69
2023-01-11T19:40:26.439Z,-0.76
2023-01-11T19:44:14.439Z,-0.78
2023-01-11T19:48:03.621Z,-0.76
2023-01-11T19:51:52.605Z,-0.72
2023-01-11T19:55:44.771Z,-0.73
2023-01-11T19:59:26.846Z,-0.84
2023-01-11T20:03:15.871Z,-0.95
2023-01-11T20:07:05.187Z,-1.05
2023-01-11T20:10:54.388Z,-1.08
2023-01-11T20:14:43.661Z,-1.10
2023-01-11T20:18:32.971Z,-1.04
2023-01-11T20:22:22.102Z,-0.93
2023-01-11T20:26:10.137Z,-0.81
2023-01-11T20:29:59.776Z,-0.67
2023-01-11T20:33:49.040Z,-0.62
2023-01-11T20:37:38.322Z,-0.63
2023-01-11T20:41:27.634Z,-0.65
2023-01-11T20:45:22.837Z,-0.69
2023-01-11T20:49:12.039Z,-0.69
2023-01-11T20:53:01.214Z,-0.67
2023-01-11T20:56:32.999Z,-0.71
2023-01-11T21:00:04.703Z,-0.73
2023-01-11T21:03:53.956Z,-0.68
2023-01-11T21:07:43.160Z,-0.68
2023-01-11T21:11:25.551Z,-0.72
2023-01-11T21:15:15.015Z,-0.79
2023-01-11T21:18:57.053Z,-0.91
2023-01-11T21:22:46.315Z,-1.05
2023-01-11T21:26:35.533Z,-1.06
2023-01-11T21:30:24.784Z,-1.06
2023-01-11T21:34:13.023Z,-1.02
2023-01-11T21:38:02.216Z,-1.01
2023-01-11T21:41:52.247Z,-0.99
2023-01-11T21:45:24.936Z,-0.93
2023-01-11T21:49:12.745Z,-0.93
2023-01-11T21:52:54.651Z,-1.01
2023-01-11T21:56:43.909Z,-1.13
2023-01-11T22:00:33.231Z,-1.19
2023-01-11T22:04:22.639Z,-1.16
2023-01-11T22:08:11.818Z,-1.06
2023-01-11T22:12:01.142Z,-0.91
2023-01-11T22:15:50.520Z,-0.88
2023-01-11T22:19:39.782Z,-0.88
2023-01-11T22:23:29.089Z,-0.87
2023-01-11T22:27:18.096Z,-0.89
2023-01-11T22:30:59.702Z,-0.90
2023-01-11T22:34:48.900Z,-0.86
2023-01-11T22:38:38.281Z,-0.80
2023-01-11T22:42:27.445Z,-0.68
2023-01-11T22:46:16.712Z,-0.68
2023-01-11T22:50:05.944Z,-0.65
2023-01-11T22:53:55.270Z,-0.69
2023-01-11T22:57:44.456Z,-0.77
2023-01-11T23:01:33.844Z,-0.84
2023-01-11T23:05:23.085Z,-0.88
2023-01-11T23:09:14.152Z,-0.87
2023-01-11T23:13:03.082Z,-0.77
2023-01-11T23:16:52.391Z,-0.62
2023-01-11T23:20:41.672Z,-0.55
2023-01-11T23:24:30.579Z,-0.62
2023-01-11T23:28:12.296Z,-0.70
2023-01-11T23:32:01.543Z,-0.73
2023-01-11T23:35:50.720Z,-0.64
2023-01-11T23:39:39.689Z,-0.55
2023-01-11T23:43:28.841Z,-0.42
2023-01-11T23:47:16.479Z,-0.36
2023-01-11T23:51:05.502Z,-0.36
2023-01-11T23:54:46.808Z,-0.39
2023-01-11T23:58:36.093Z,-0.42
